sensor_id;sensor_type;location;lat;lon;timestamp;pressure;altitude;pressure_sealevel;temperature;humidity
7966;BME280;4028;43.272;26.932;2023-04-19T00:01:14;98693.69;;;11.19;100.00
7966;BME280;4028;43.272;26.932;2023-04-19T00:03:40;98704.97;;;11.21;100.00
7966;BME280;4028;43.272;26.932;2023-04-19T00:06:05;98708.91;;;11.17;100.00
7966;BME280;4028;43.272;26.932;2023-04-19T00:08:33;98697.34;;;11.18;100.00
7966;BME280;4028;43.272;26.932;2023-04-19T00:10:58;98692.03;;;11.18;100.00
7966;BME280;4028;43.272;26.932;2023-04-19T00:13:24;98691.03;;;11.19;100.00
7966;BME280;4028;43.272;26.932;2023-04-19T00:15:49;98680.56;;;11.09;100.00
7966;BME280;4028;43.272;26.932;2023-04-19T00:18:15;98689.09;;;11.29;100.00
7966;BME280;4028;43.272;26.932;2023-04-19T00:20:40;98689.22;;;11.19;100.00
7966;BME280;4028;43.272;26.932;2023-04-19T00:23:06;98690.41;;;11.25;100.00
7966;BME280;4028;43.272;26.932;2023-04-19T00:25:31;98686.22;;;11.14;100.00
7966;BME280;4028;43.272;26.932;2023-04-19T00:27:58;98681.44;;;11.18;100.00
7966;BME280;4028;43.272;26.932;2023-04-19T00:30:24;98678.28;;;11.14;100.00
7966;BME280;4028;43.272;26.932;2023-04-19T00:32:49;98688.50;;;11.09;100.00
7966;BME280;4028;43.272;26.932;2023-04-19T00:35:15;98680.63;;;11.17;100.00
7966;BME280;4028;43.272;26.932;2023-04-19T00:37:41;98679.94;;;11.15;100.00
7966;BME280;4028;43.272;26.932;2023-04-19T00:40:06;98668.69;;;11.13;100.00
7966;BME280;4028;43.272;26.932;2023-04-19T00:42:32;98686.56;;;11.11;100.00
7966;BME280;4028;43.272;26.932;2023-04-19T00:44:58;98684.03;;;11.02;100.00
7966;BME280;4028;43.272;26.932;2023-04-19T00:47:23;98678.84;;;11.00;100.00
7966;BME280;4028;43.272;26.932;2023-04-19T00:49:49;98682.38;;;11.01;100.00
7966;BME280;4028;43.272;26.932;2023-04-19T00:52:14;98679.84;;;10.99;100.00
7966;BME280;4028;43.272;26.932;2023-04-19T00:54:41;98683.31;;;11.00;100.00
7966;BME280;4028;43.272;26.932;2023-04-19T00:57:07;98686.59;;;10.93;100.00
7966;BME280;4028;43.272;26.932;2023-04-19T00:59:34;98680.19;;;10.96;100.00
7966;BME280;4028;43.272;26.932;2023-04-19T01:01:59;98678.31;;;10.88;100.00
7966;BME280;4028;43.272;26.932;2023-04-19T01:04:25;98675.50;;;10.90;100.00
7966;BME280;4028;43.272;26.932;2023-04-19T01:06:51;98680.03;;;10.98;100.00
7966;BME280;4028;43.272;26.932;2023-04-19T01:09:17;98676.91;;;11.02;100.00
7966;BME280;4028;43.272;26.932;2023-04-19T01:11:42;98668.44;;;10.99;100.00
7966;BME280;4028;43.272;26.932;2023-04-19T01:14:08;98672.72;;;10.91;100.00
7966;BME280;4028;43.272;26.932;2023-04-19T01:16:33;98667.41;;;10.91;100.00
7966;BME280;4028;43.272;26.932;2023-04-19T01:19:00;98655.44;;;10.79;100.00
7966;BME280;4028;43.272;26.932;2023-04-19T01:21:26;98657.72;;;10.74;100.00
7966;BME280;4028;43.272;26.932;2023-04-19T01:23:53;98669.19;;;10.83;100.00
7966;BME280;4028;43.272;26.932;2023-04-19T01:26:19;98667.41;;;10.91;100.00
7966;BME280;4028;43.272;26.932;2023-04-19T01:28:45;98651.84;;;10.88;100.00
7966;BME280;4028;43.272;26.932;2023-04-19T01:31:10;98656.84;;;10.91;100.00
7966;BME280;4028;43.272;26.932;2023-04-19T01:33:36;98623.19;;;10.76;100.00
7966;BME280;4028;43.272;26.932;2023-04-19T01:36:01;98654.81;;;10.85;100.00
7966;BME280;4028;43.272;26.932;2023-04-19T01:38:27;98645.00;;;10.78;100.00
7966;BME280;4028;43.272;26.932;2023-04-19T01:40:52;98642.09;;;10.89;100.00
7966;BME280;4028;43.272;26.932;2023-04-19T01:43:20;98632.31;;;10.81;100.00
7966;BME280;4028;43.272;26.932;2023-04-19T01:45:46;98644.63;;;10.99;100.00
7966;BME280;4028;43.272;26.932;2023-04-19T01:48:11;98653.03;;;10.94;100.00
7966;BME280;4028;43.272;26.932;2023-04-19T01:50:37;98651.69;;;10.90;100.00
7966;BME280;4028;43.272;26.932;2023-04-19T01:53:02;98647.19;;;10.82;100.00
7966;BME280;4028;43.272;26.932;2023-04-19T01:55:28;98649.19;;;10.80;100.00
7966;BME280;4028;43.272;26.932;2023-04-19T01:57:53;98646.53;;;10.80;100.00
7966;BME280;4028;43.272;26.932;2023-04-19T02:00:20;98641.00;;;10.74;100.00
7966;BME280;4028;43.272;26.932;2023-04-19T02:02:45;98652.88;;;10.70;100.00
7966;BME280;4028;43.272;26.932;2023-04-19T02:05:11;98644.59;;;10.64;100.00
7966;BME280;4028;43.272;26.932;2023-04-19T02:07:37;98645.13;;;10.68;100.00
7966;BME280;4028;43.272;26.932;2023-04-19T02:10:03;98643.09;;;10.62;100.00
7966;BME280;4028;43.272;26.932;2023-04-19T02:12:30;98643.75;;;10.64;100.00
7966;BME280;4028;43.272;26.932;2023-04-19T02:14:56;98644.28;;;10.67;100.00
7966;BME280;4028;43.272;26.932;2023-04-19T02:17:23;98646.22;;;10.57;100.00
7966;BME280;4028;43.272;26.932;2023-04-19T02:19:49;98640.63;;;10.60;100.00
7966;BME280;4028;43.272;26.932;2023-04-19T02:22:14;98645.13;;;10.68;100.00
7966;BME280;4028;43.272;26.932;2023-04-19T02:24:40;98639.00;;;10.67;100.00
7966;BME280;4028;43.272;26.932;2023-04-19T02:27:05;98634.88;;;10.65;100.00
7966;BME280;4028;43.272;26.932;2023-04-19T02:29:31;98632.22;;;10.65;100.00
7966;BME280;4028;43.272;26.932;2023-04-19T02:31:57;98639.63;;;10.61;100.00
7966;BME280;4028;43.272;26.932;2023-04-19T02:34:22;98635.16;;;10.62;100.00
7966;BME280;4028;43.272;26.932;2023-04-19T02:36:48;98637.81;;;10.62;100.00
7966;BME280;4028;43.272;26.932;2023-04-19T02:39:13;98635.16;;;10.62;100.00
7966;BME280;4028;43.272;26.932;2023-04-19T02:41:40;98632.22;;;10.65;100.00
7966;BME280;4028;43.272;26.932;2023-04-19T02:44:05;98641.44;;;10.61;100.00
7966;BME280;4028;43.272;26.932;2023-04-19T02:46:31;98624.94;;;10.67;100.00
7966;BME280;4028;43.272;26.932;2023-04-19T02:48:56;98622.66;;;10.72;100.00
7966;BME280;4028;43.272;26.932;2023-04-19T02:51:22;98623.59;;;10.63;100.00
7966;BME280;4028;43.272;26.932;2023-04-19T02:53:47;98625.41;;;10.62;100.00
7966;BME280;4028;43.272;26.932;2023-04-19T02:56:13;98619.47;;;10.60;100.00
7966;BME280;4028;43.272;26.932;2023-04-19T02:58:38;98622.81;;;10.71;100.00
7966;BME280;4028;43.272;26.932;2023-04-19T03:01:04;98619.47;;;10.68;100.00
7966;BME280;4028;43.272;26.932;2023-04-19T03:03:29;98624.13;;;10.66;100.00
7966;BME280;4028;43.272;26.932;2023-04-19T03:05:55;98626.94;;;10.65;100.00
7966;BME280;4028;43.272;26.932;2023-04-19T03:08:20;98631.25;;;10.74;100.00
7966;BME280;4028;43.272;26.932;2023-04-19T03:10:46;98622.66;;;10.72;100.00
7966;BME280;4028;43.272;26.932;2023-04-19T03:13:14;98621.00;;;10.71;100.00
7966;BME280;4028;43.272;26.932;2023-04-19T03:15:39;98626.75;;;10.66;100.00
7966;BME280;4028;43.272;26.932;2023-04-19T03:18:05;98629.72;;;10.63;100.00
7966;BME280;4028;43.272;26.932;2023-04-19T03:20:30;98628.94;;;10.71;100.00
7966;BME280;4028;43.272;26.932;2023-04-19T03:22:56;98622.00;;;10.70;100.00
7966;BME280;4028;43.272;26.932;2023-04-19T03:25:21;98624.13;;;10.66;100.00
7966;BME280;4028;43.272;26.932;2023-04-19T03:27:47;98622.59;;;10.64;100.00
7966;BME280;4028;43.272;26.932;2023-04-19T03:30:13;98614.94;;;10.53;100.00
7966;BME280;4028;43.272;26.932;2023-04-19T03:32:39;98632.16;;;10.57;100.00
7966;BME280;4028;43.272;26.932;2023-04-19T03:35:05;98629.72;;;10.63;100.00
7966;BME280;4028;43.272;26.932;2023-04-19T03:37:30;98626.41;;;10.61;100.00
7966;BME280;4028;43.272;26.932;2023-04-19T03:39:56;98633.66;;;10.59;100.00
7966;BME280;4028;43.272;26.932;2023-04-19T03:42:21;98623.06;;;10.59;100.00
7966;BME280;4028;43.272;26.932;2023-04-19T03:44:47;98623.91;;;10.60;100.00
7966;BME280;4028;43.272;26.932;2023-04-19T03:47:12;98630.50;;;10.56;100.00
7966;BME280;4028;43.272;26.932;2023-04-19T03:49:38;98619.59;;;10.59;100.00
7966;BME280;4028;43.272;26.932;2023-04-19T03:52:03;98620.28;;;10.61;100.00
7966;BME280;4028;43.272;26.932;2023-04-19T03:54:29;98587.09;;;10.40;100.00
7966;BME280;4028;43.272;26.932;2023-04-19T03:56:54;98619.28;;;10.62;100.00
7966;BME280;4028;43.272;26.932;2023-04-19T03:59:21;98618.09;;;10.56;100.00
7966;BME280;4028;43.272;26.932;2023-04-19T04:01:46;98627.16;;;10.54;100.00
7966;BME280;4028;43.272;26.932;2023-04-19T04:04:12;98616.13;;;10.58;100.00
7966;BME280;4028;43.272;26.932;2023-04-19T04:06:37;98621.84;;;10.46;100.00
7966;BME280;4028;43.272;26.932;2023-04-19T04:09:03;98624.50;;;10.46;100.00
7966;BME280;4028;43.272;26.932;2023-04-19T04:11:28;98622.88;;;10.53;100.00
7966;BME280;4028;43.272;26.932;2023-04-19T04:13:57;98612.38;;;10.43;100.00
7966;BME280;4028;43.272;26.932;2023-04-19T04:16:22;98628.00;;;10.54;100.00
7966;BME280;4028;43.272;26.932;2023-04-19T04:18:47;98629.97;;;10.52;100.00
7966;BME280;4028;43.272;26.932;2023-04-19T04:21:13;98636.91;;;10.53;100.00
7966;BME280;4028;43.272;26.932;2023-04-19T04:23:38;98635.09;;;10.54;100.00
7966;BME280;4028;43.272;26.932;2023-04-19T04:26:04;98633.28;;;10.54;100.00
7966;BME280;4028;43.272;26.932;2023-04-19T04:28:30;98639.09;;;10.58;100.00
7966;BME280;4028;43.272;26.932;2023-04-19T04:30:56;98633.16;;;10.56;100.00
7966;BME280;4028;43.272;26.932;2023-04-19T04:33:28;98632.63;;;10.52;100.00
7966;BME280;4028;43.272;26.932;2023-04-19T04:35:54;98632.47;;;10.54;100.00
7966;BME280;4028;43.272;26.932;2023-04-19T04:38:20;98642.81;;;10.65;100.00
7966;BME280;4028;43.272;26.932;2023-04-19T04:40:53;98635.53;;;10.67;100.00
7966;BME280;4028;43.272;26.932;2023-04-19T04:43:22;98636.19;;;10.69;100.00
7966;BME280;4028;43.272;26.932;2023-04-19T04:45:48;98637.34;;;10.66;100.00
7966;BME280;4028;43.272;26.932;2023-04-19T04:48:13;98629.41;;;10.66;100.00
7966;BME280;4028;43.272;26.932;2023-04-19T04:50:39;98628.53;;;10.58;100.00
7966;BME280;4028;43.272;26.932;2023-04-19T04:53:05;98630.53;;;10.64;100.00
7966;BME280;4028;43.272;26.932;2023-04-19T04:55:30;98636.19;;;10.69;100.00
7966;BME280;4028;43.272;26.932;2023-04-19T04:57:56;98633.91;;;10.74;100.00
7966;BME280;4028;43.272;26.932;2023-04-19T05:00:22;98636.75;;;10.81;100.00
7966;BME280;4028;43.272;26.932;2023-04-19T05:02:48;98633.88;;;10.66;100.00
7966;BME280;4028;43.272;26.932;2023-04-19T05:05:13;98636.34;;;10.67;100.00
7966;BME280;4028;43.272;26.932;2023-04-19T05:07:39;98612.66;;;10.58;100.00
7966;BME280;4028;43.272;26.932;2023-04-19T05:10:06;98630.59;;;10.72;100.00
7966;BME280;4028;43.272;26.932;2023-04-19T05:12:31;98642.16;;;10.71;100.00
7966;BME280;4028;43.272;26.932;2023-04-19T05:14:57;98650.41;;;10.68;100.00
7966;BME280;4028;43.272;26.932;2023-04-19T05:17:22;98644.19;;;10.77;100.00
7966;BME280;4028;43.272;26.932;2023-04-19T05:19:48;98654.25;;;10.74;100.00
7966;BME280;4028;43.272;26.932;2023-04-19T05:22:13;98648.38;;;10.62;100.00
7966;BME280;4028;43.272;26.932;2023-04-19T05:24:39;98649.31;;;10.53;100.00
7966;BME280;4028;43.272;26.932;2023-04-19T05:27:04;98655.75;;;10.50;100.00
7966;BME280;4028;43.272;26.932;2023-04-19T05:29:30;98640.03;;;10.49;100.00
7966;BME280;4028;43.272;26.932;2023-04-19T05:31:57;98664.09;;;10.37;100.00
7966;BME280;4028;43.272;26.932;2023-04-19T05:34:23;98656.22;;;10.46;100.00
7966;BME280;4028;43.272;26.932;2023-04-19T05:36:48;98653.88;;;10.43;100.00
7966;BME280;4028;43.272;26.932;2023-04-19T05:39:14;98665.19;;;10.53;100.00
7966;BME280;4028;43.272;26.932;2023-04-19T05:41:39;98661.19;;;10.49;100.00
7966;BME280;4028;43.272;26.932;2023-04-19T05:44:05;98658.72;;;10.47;100.00
7966;BME280;4028;43.272;26.932;2023-04-19T05:46:31;98662.59;;;10.35;100.00
7966;BME280;4028;43.272;26.932;2023-04-19T05:48:56;98653.50;;;10.37;100.00
7966;BME280;4028;43.272;26.932;2023-04-19T05:51:22;98660.63;;;10.37;100.00
7966;BME280;4028;43.272;26.932;2023-04-19T05:53:47;98661.06;;;10.32;100.00
7966;BME280;4028;43.272;26.932;2023-04-19T05:56:13;98656.16;;;10.37;100.00
7966;BME280;4028;43.272;26.932;2023-04-19T05:58:38;98662.16;;;10.39;100.00
7966;BME280;4028;43.272;26.932;2023-04-19T06:01:04;98661.44;;;10.37;100.00
7966;BME280;4028;43.272;26.932;2023-04-19T06:03:31;98660.47;;;10.38;100.00
7966;BME280;4028;43.272;26.932;2023-04-19T06:05:57;98655.25;;;10.47;100.00
7966;BME280;4028;43.272;26.932;2023-04-19T06:08:23;98664.00;;;10.47;100.00
7966;BME280;4028;43.272;26.932;2023-04-19T06:10:48;98661.56;;;10.54;100.00
7966;BME280;4028;43.272;26.932;2023-04-19T06:13:14;98658.72;;;10.47;100.00
7966;BME280;4028;43.272;26.932;2023-04-19T06:15:40;98657.59;;;10.50;100.00
7966;BME280;4028;43.272;26.932;2023-04-19T06:18:06;98667.53;;;10.56;100.00
7966;BME280;4028;43.272;26.932;2023-04-19T06:20:38;98664.19;;;10.54;100.00
7966;BME280;4028;43.272;26.932;2023-04-19T06:23:04;98659.91;;;10.53;100.00
7966;BME280;4028;43.272;26.932;2023-04-19T06:25:30;98669.13;;;10.49;100.00
7966;BME280;4028;43.272;26.932;2023-04-19T06:27:56;98648.38;;;10.36;100.00
7966;BME280;4028;43.272;26.932;2023-04-19T06:30:21;98663.09;;;10.38;100.00
7966;BME280;4028;43.272;26.932;2023-04-19T06:32:47;98663.47;;;10.44;100.00
7966;BME280;4028;43.272;26.932;2023-04-19T06:35:13;98675.94;;;10.51;100.00
7966;BME280;4028;43.272;26.932;2023-04-19T06:37:39;98679.63;;;10.58;100.00
7966;BME280;4028;43.272;26.932;2023-04-19T06:40:05;98666.91;;;10.62;100.00
7966;BME280;4028;43.272;26.932;2023-04-19T06:42:33;98670.84;;;10.58;100.00
7966;BME280;4028;43.272;26.932;2023-04-19T06:44:59;98673.03;;;10.62;100.00
7966;BME280;4028;43.272;26.932;2023-04-19T06:47:25;98673.69;;;10.64;100.00
7966;BME280;4028;43.272;26.932;2023-04-19T06:49:51;98678.16;;;10.64;100.00
7966;BME280;4028;43.272;26.932;2023-04-19T06:52:17;98673.22;;;10.69;100.00
7966;BME280;4028;43.272;26.932;2023-04-19T06:54:47;98672.25;;;10.70;100.00
7966;BME280;4028;43.272;26.932;2023-04-19T06:57:13;98681.16;;;10.69;100.00
7966;BME280;4028;43.272;26.932;2023-04-19T06:59:39;98679.50;;;10.68;100.00
7966;BME280;4028;43.272;26.932;2023-04-19T07:02:05;98684.91;;;10.58;100.00
7966;BME280;4028;43.272;26.932;2023-04-19T07:04:31;98683.91;;;10.59;100.00
7966;BME280;4028;43.272;26.932;2023-04-19T07:06:57;98678.78;;;10.58;100.00
7966;BME280;4028;43.272;26.932;2023-04-19T07:09:22;98692.09;;;10.66;100.00
7966;BME280;4028;43.272;26.932;2023-04-19T07:11:48;98691.25;;;10.65;100.00
7966;BME280;4028;43.272;26.932;2023-04-19T07:14:15;98691.25;;;10.65;100.00
7966;BME280;4028;43.272;26.932;2023-04-19T07:16:41;98695.59;;;10.75;100.00
7966;BME280;4028;43.272;26.932;2023-04-19T07:19:06;98701.03;;;10.73;100.00
7966;BME280;4028;43.272;26.932;2023-04-19T07:21:32;98697.03;;;10.69;100.00
7966;BME280;4028;43.272;26.932;2023-04-19T07:23:58;98706.41;;;10.81;100.00
7966;BME280;4028;43.272;26.932;2023-04-19T07:26:24;98698.50;;;10.89;100.00
7966;BME280;4028;43.272;26.932;2023-04-19T07:28:49;98703.44;;;10.84;100.00
7966;BME280;4028;43.272;26.932;2023-04-19T07:31:16;98704.41;;;10.83;100.00
7966;BME280;4028;43.272;26.932;2023-04-19T07:33:42;98705.31;;;10.92;100.00
7966;BME280;4028;43.272;26.932;2023-04-19T07:36:08;98702.47;;;10.85;100.00
7966;BME280;4028;43.272;26.932;2023-04-19T07:38:33;98692.44;;;10.71;100.00
7966;BME280;4028;43.272;26.932;2023-04-19T07:40:59;98715.69;;;10.85;100.00
7966;BME280;4028;43.272;26.932;2023-04-19T07:43:25;98710.97;;;10.97;100.00
7966;BME280;4028;43.272;26.932;2023-04-19T07:45:51;98713.41;;;10.90;100.00
7966;BME280;4028;43.272;26.932;2023-04-19T07:48:17;98713.97;;;11.02;100.00
7966;BME280;4028;43.272;26.932;2023-04-19T07:50:43;98712.66;;;11.06;100.00
7966;BME280;4028;43.272;26.932;2023-04-19T07:53:08;98714.16;;;11.09;100.00
7966;BME280;4028;43.272;26.932;2023-04-19T07:55:34;98716.78;;;11.01;100.00
7966;BME280;4028;43.272;26.932;2023-04-19T07:58:00;98719.63;;;11.07;100.00
7966;BME280;4028;43.272;26.932;2023-04-19T08:00:26;98711.84;;;11.06;100.00
7966;BME280;4028;43.272;26.932;2023-04-19T08:02:52;98715.78;;;11.02;100.00
7966;BME280;4028;43.272;26.932;2023-04-19T08:05:17;98714.91;;;10.93;100.00
7966;BME280;4028;43.272;26.932;2023-04-19T08:07:44;98712.97;;;10.77;100.00
7966;BME280;4028;43.272;26.932;2023-04-19T08:10:10;98720.91;;;10.77;100.00
7966;BME280;4028;43.272;26.932;2023-04-19T08:12:36;98722.59;;;10.78;100.00
7966;BME280;4028;43.272;26.932;2023-04-19T08:15:03;98726.59;;;10.82;100.00
7966;BME280;4028;43.272;26.932;2023-04-19T08:17:28;98700.94;;;10.83;100.00
7966;BME280;4028;43.272;26.932;2023-04-19T08:19:54;98727.38;;;11.01;100.00
7966;BME280;4028;43.272;26.932;2023-04-19T08:22:20;98722.63;;;11.12;100.00
7966;BME280;4028;43.272;26.932;2023-04-19T08:24:48;98731.31;;;10.97;100.00
7966;BME280;4028;43.272;26.932;2023-04-19T08:27:14;98730.88;;;11.09;100.00
7966;BME280;4028;43.272;26.932;2023-04-19T08:29:39;98731.66;;;11.02;100.00
7966;BME280;4028;43.272;26.932;2023-04-19T08:32:06;98730.38;;;11.06;100.00
7966;BME280;4028;43.272;26.932;2023-04-19T08:34:35;98727.09;;;11.12;100.00
7966;BME280;4028;43.272;26.932;2023-04-19T08:37:02;98719.47;;;11.09;100.00
7966;BME280;4028;43.272;26.932;2023-04-19T08:39:29;98726.56;;;11.08;100.00
7966;BME280;4028;43.272;26.932;2023-04-19T08:41:55;98722.56;;;11.04;100.00
7966;BME280;4028;43.272;26.932;2023-04-19T08:44:24;98723.75;;;11.10;100.00
7966;BME280;4028;43.272;26.932;2023-04-19T08:46:50;98730.75;;;11.19;100.00
7966;BME280;4028;43.272;26.932;2023-04-19T08:49:17;98732.47;;;11.28;100.00
7966;BME280;4028;43.272;26.932;2023-04-19T08:51:48;98730.41;;;11.14;100.00
7966;BME280;4028;43.272;26.932;2023-04-19T08:54:14;98734.50;;;11.08;100.00
7966;BME280;4028;43.272;26.932;2023-04-19T08:56:41;98729.50;;;10.97;100.00
7966;BME280;4028;43.272;26.932;2023-04-19T08:59:06;98733.13;;;10.96;100.00
7966;BME280;4028;43.272;26.932;2023-04-19T09:01:31;98739.38;;;10.95;100.00
7966;BME280;4028;43.272;26.932;2023-04-19T09:03:57;98739.75;;;11.00;100.00
7966;BME280;4028;43.272;26.932;2023-04-19T09:06:22;98722.19;;;10.91;100.00
7966;BME280;4028;43.272;26.932;2023-04-19T09:08:48;98731.22;;;10.80;100.00
7966;BME280;4028;43.272;26.932;2023-04-19T09:11:15;98745.22;;;10.99;100.00
7966;BME280;4028;43.272;26.932;2023-04-19T09:13:41;98741.09;;;11.04;100.00
7966;BME280;4028;43.272;26.932;2023-04-19T09:16:22;98734.00;;;11.05;100.00
7966;BME280;4028;43.272;26.932;2023-04-19T09:18:56;98745.53;;;11.22;100.00
7966;BME280;4028;43.272;26.932;2023-04-19T09:21:29;98741.41;;;11.27;100.00
7966;BME280;4028;43.272;26.932;2023-04-19T09:23:55;98741.59;;;11.34;100.00
7966;BME280;4028;43.272;26.932;2023-04-19T09:26:22;98733.47;;;11.35;100.00
7966;BME280;4028;43.272;26.932;2023-04-19T09:29:04;98704.69;;;11.32;100.00
7966;BME280;4028;43.272;26.932;2023-04-19T09:31:32;98737.53;;;11.48;100.00
7966;BME280;4028;43.272;26.932;2023-04-19T09:34:17;98734.88;;;11.48;100.00
7966;BME280;4028;43.272;26.932;2023-04-19T09:36:44;98740.19;;;11.48;100.00
7966;BME280;4028;43.272;26.932;2023-04-19T09:39:10;98733.84;;;11.40;100.00
7966;BME280;4028;43.272;26.932;2023-04-19T09:41:52;98716.63;;;11.36;100.00
7966;BME280;4028;43.272;26.932;2023-04-19T09:44:18;98732.22;;;11.48;100.00
7966;BME280;4028;43.272;26.932;2023-04-19T09:46:44;98737.06;;;11.52;100.00
7966;BME280;4028;43.272;26.932;2023-04-19T09:51:46;98742.00;;;11.55;100.00
7966;BME280;4028;43.272;26.932;2023-04-19T09:54:14;98736.94;;;11.62;100.00
7966;BME280;4028;43.272;26.932;2023-04-19T09:56:40;98746.19;;;11.58;100.00
7966;BME280;4028;43.272;26.932;2023-04-19T09:59:06;98738.06;;;11.59;100.00
7966;BME280;4028;43.272;26.932;2023-04-19T10:01:45;98739.56;;;11.62;100.00
7966;BME280;4028;43.272;26.932;2023-04-19T10:04:13;98737.72;;;11.54;100.00
7966;BME280;4028;43.272;26.932;2023-04-19T10:06:47;98741.53;;;11.52;100.00
7966;BME280;4028;43.272;26.932;2023-04-19T10:09:14;98740.06;;;11.57;100.00
7966;BME280;4028;43.272;26.932;2023-04-19T10:11:42;98743.53;;;11.58;100.00
7966;BME280;4028;43.272;26.932;2023-04-19T10:14:14;98735.53;;;11.41;100.00
7966;BME280;4028;43.272;26.932;2023-04-19T10:16:39;98740.84;;;11.50;100.00
7966;BME280;4028;43.272;26.932;2023-04-19T10:19:10;98738.06;;;11.59;100.00
7966;BME280;4028;43.272;26.932;2023-04-19T10:21:36;98734.88;;;11.56;100.00
7966;BME280;4028;43.272;26.932;2023-04-19T10:24:03;98733.63;;;11.76;100.00
7966;BME280;4028;43.272;26.932;2023-04-19T10:26:29;98726.38;;;11.78;100.00
7966;BME280;4028;43.272;26.932;2023-04-19T10:28:55;98731.56;;;11.88;100.00
7966;BME280;4028;43.272;26.932;2023-04-19T10:31:22;98730.56;;;11.97;100.00
7966;BME280;4028;43.272;26.932;2023-04-19T10:33:49;98730.56;;;11.97;100.00
7966;BME280;4028;43.272;26.932;2023-04-19T10:36:19;98729.59;;;12.06;100.00
7966;BME280;4028;43.272;26.932;2023-04-19T10:38:49;98735.75;;;12.15;100.00
7966;BME280;4028;43.272;26.932;2023-04-19T10:41:20;98734.75;;;12.16;100.00
7966;BME280;4028;43.272;26.932;2023-04-19T10:48:57;98711.22;;;12.21;100.00
7966;BME280;4028;43.272;26.932;2023-04-19T10:54:03;98715.22;;;12.41;100.00
7966;BME280;4028;43.272;26.932;2023-04-19T11:01:41;98717.34;;;12.38;100.00
7966;BME280;4028;43.272;26.932;2023-04-19T11:04:12;98716.53;;;12.21;100.00
7966;BME280;4028;43.272;26.932;2023-04-19T11:09:24;98712.22;;;12.36;100.00
7966;BME280;4028;43.272;26.932;2023-04-19T11:11:52;98706.25;;;12.42;100.00
7966;BME280;4028;43.272;26.932;2023-04-19T11:14:19;98715.38;;;12.48;100.00
7966;BME280;4028;43.272;26.932;2023-04-19T11:16:46;98717.38;;;12.54;100.00
7966;BME280;4028;43.272;26.932;2023-04-19T11:19:16;98714.88;;;12.53;100.00
7966;BME280;4028;43.272;26.932;2023-04-19T11:21:44;98712.38;;;12.67;100.00
7966;BME280;4028;43.272;26.932;2023-04-19T11:24:10;98711.88;;;12.72;100.00
7966;BME280;4028;43.272;26.932;2023-04-19T11:26:36;98711.22;;;12.70;100.00
7966;BME280;4028;43.272;26.932;2023-04-19T11:29:02;98712.84;;;12.79;100.00
7966;BME280;4028;43.272;26.932;2023-04-19T11:31:31;98709.06;;;12.65;100.00
7966;BME280;4028;43.272;26.932;2023-04-19T11:33:58;98683.19;;;12.43;100.00
7966;BME280;4028;43.272;26.932;2023-04-19T11:36:24;98714.19;;;12.59;100.00
7966;BME280;4028;43.272;26.932;2023-04-19T11:38:51;98704.25;;;12.36;100.00
7966;BME280;4028;43.272;26.932;2023-04-19T11:41:17;98710.56;;;12.43;100.00
7966;BME280;4028;43.272;26.932;2023-04-19T11:43:42;98706.94;;;12.44;100.00
7966;BME280;4028;43.272;26.932;2023-04-19T11:46:12;98709.25;;;12.39;100.00
7966;BME280;4028;43.272;26.932;2023-04-19T11:48:49;98715.56;;;12.55;100.00
7966;BME280;4028;43.272;26.932;2023-04-19T11:51:16;98709.88;;;12.58;100.00
7966;BME280;4028;43.272;26.932;2023-04-19T11:53:41;98704.25;;;12.61;100.00
7966;BME280;4028;43.272;26.932;2023-04-19T11:56:08;98702.25;;;12.71;100.00
7966;BME280;4028;43.272;26.932;2023-04-19T11:58:42;98707.22;;;12.90;100.00
7966;BME280;4028;43.272;26.932;2023-04-19T12:01:14;98698.88;;;13.01;100.00
7966;BME280;4028;43.272;26.932;2023-04-19T12:03:48;98699.50;;;13.12;100.00
7966;BME280;4028;43.272;26.932;2023-04-19T12:08:48;98695.22;;;13.02;100.00
7966;BME280;4028;43.272;26.932;2023-04-19T12:11:15;98686.38;;;13.10;100.00
7966;BME280;4028;43.272;26.932;2023-04-19T12:13:40;98692.53;;;13.27;100.00
7966;BME280;4028;43.272;26.932;2023-04-19T12:16:08;98683.03;;;13.33;100.00
7966;BME280;4028;43.272;26.932;2023-04-19T12:18:50;98686.81;;;13.46;100.00
7966;BME280;4028;43.272;26.932;2023-04-19T12:21:29;98678.59;;;13.56;100.00
7966;BME280;4028;43.272;26.932;2023-04-19T12:23:58;98671.72;;;13.70;100.00
7966;BME280;4028;43.272;26.932;2023-04-19T12:26:53;98671.97;;;13.83;100.00
7966;BME280;4028;43.272;26.932;2023-04-19T12:29:19;98672.69;;;14.00;100.00
7966;BME280;4028;43.272;26.932;2023-04-19T12:31:45;98663.88;;;13.99;100.00
7966;BME280;4028;43.272;26.932;2023-04-19T12:34:10;98663.41;;;13.96;100.00
7966;BME280;4028;43.272;26.932;2023-04-19T12:36:36;98667.22;;;13.70;100.00
7966;BME280;4028;43.272;26.932;2023-04-19T12:39:01;98664.44;;;13.64;100.00
7966;BME280;4028;43.272;26.932;2023-04-19T12:41:27;98658.63;;;13.60;100.00
7966;BME280;4028;43.272;26.932;2023-04-19T12:43:52;98635.13;;;13.41;100.00
7966;BME280;4028;43.272;26.932;2023-04-19T12:46:18;98651.25;;;13.47;100.00
7966;BME280;4028;43.272;26.932;2023-04-19T12:48:43;98659.97;;;13.56;100.00
7966;BME280;4028;43.272;26.932;2023-04-19T12:51:09;98656.47;;;13.64;100.00
7966;BME280;4028;43.272;26.932;2023-04-19T12:53:34;98656.13;;;13.90;100.00
7966;BME280;4028;43.272;26.932;2023-04-19T12:56:00;98653.88;;;14.01;100.00
7966;BME280;4028;43.272;26.932;2023-04-19T12:58:25;98649.66;;;14.07;100.00
7966;BME280;4028;43.272;26.932;2023-04-19T13:00:52;98646.09;;;14.23;100.00
7966;BME280;4028;43.272;26.932;2023-04-19T13:03:17;98641.22;;;14.26;100.00
7966;BME280;4028;43.272;26.932;2023-04-19T13:05:43;98629.44;;;14.21;100.00
7966;BME280;4028;43.272;26.932;2023-04-19T13:08:08;98637.38;;;14.06;100.00
7966;BME280;4028;43.272;26.932;2023-04-19T13:10:34;98625.28;;;14.03;100.00
7966;BME280;4028;43.272;26.932;2023-04-19T13:13:00;98629.41;;;14.06;100.00
7966;BME280;4028;43.272;26.932;2023-04-19T13:15:25;98620.31;;;14.00;100.00
7966;BME280;4028;43.272;26.932;2023-04-19T13:17:52;98633.47;;;14.17;100.00